createdAt,value
2019-01-15T00:00:01.535Z,3.62
2019-01-15T00:00:36.923Z,5.28
2019-01-15T00:01:12.657Z,3.20
2019-01-15T00:01:48.396Z,3.02
2019-01-15T00:02:24.062Z,5.10
2019-01-15T00:02:59.923Z,4.65
2019-01-15T00:03:36.015Z,3.12
2019-01-15T00:04:11.658Z,5.45
2019-01-15T00:04:47.235Z,2.70
2019-01-15T00:05:23.202Z,4.95
2019-01-15T00:05:58.735Z,4.83
2019-01-15T00:06:34.603Z,4.08
2019-01-15T00:07:10.225Z,5.33
2019-01-15T00:07:45.940Z,5.10
2019-01-15T00:08:21.504Z,4.17
2019-01-15T00:08:57.185Z,3.05
2019-01-15T00:09:32.699Z,4.08
2019-01-15T00:10:09.016Z,3.72
2019-01-15T00:10:44.738Z,2.90
2019-01-15T00:11:20.416Z,3.85
2019-01-15T00:11:56.035Z,3.50
2019-01-15T00:12:31.682Z,4.42
2019-01-15T00:13:07.301Z,3.62
2019-01-15T00:13:42.834Z,3.27
2019-01-15T00:14:18.838Z,2.92
2019-01-15T00:14:54.713Z,3.62
2019-01-15T00:15:30.611Z,3.55
2019-01-15T00:16:06.656Z,3.60
2019-01-15T00:16:42.270Z,3.00
2019-01-15T00:17:17.976Z,4.08
2019-01-15T00:17:53.558Z,3.92
2019-01-15T00:18:29.250Z,4.40
2019-01-15T00:19:04.777Z,4.28
2019-01-15T00:19:40.596Z,4.53
2019-01-15T00:20:16.475Z,2.85
2019-01-15T00:20:52.316Z,3.17
2019-01-15T00:21:28.073Z,3.27
2019-01-15T00:22:03.758Z,3.75
2019-01-15T00:22:39.303Z,2.77
2019-01-15T00:23:14.866Z,3.33
2019-01-15T00:23:50.646Z,4.08
2019-01-15T00:24:26.373Z,4.05
2019-01-15T00:25:02.003Z,3.92
2019-01-15T00:25:37.696Z,3.87
2019-01-15T00:26:13.435Z,4.15
2019-01-15T00:26:49.008Z,4.15
2019-01-15T00:27:24.584Z,3.17
2019-01-15T00:28:00.434Z,2.25
2019-01-15T00:28:36.249Z,3.33
2019-01-15T00:29:12.015Z,5.17
2019-01-15T00:29:47.525Z,2.72
2019-01-15T00:30:23.189Z,2.47
2019-01-15T00:30:58.729Z,3.40
2019-01-15T00:31:34.398Z,3.60
2019-01-15T00:32:10.059Z,3.15
2019-01-15T00:32:45.728Z,3.37
2019-01-15T00:33:21.361Z,3.17
2019-01-15T00:33:57.071Z,3.50
2019-01-15T00:34:32.813Z,2.85
2019-01-15T00:35:09.263Z,3.45
2019-01-15T00:35:44.963Z,4.33
2019-01-15T00:36:20.462Z,2.75
2019-01-15T00:36:56.213Z,3.65
2019-01-15T00:37:31.960Z,3.08
2019-01-15T00:38:07.673Z,2.92
2019-01-15T00:38:43.505Z,2.77
2019-01-15T00:39:19.030Z,2.80
2019-01-15T00:39:54.911Z,2.45
2019-01-15T00:40:30.616Z,3.50
2019-01-15T00:41:06.557Z,3.17
2019-01-15T00:41:42.227Z,2.33
2019-01-15T00:42:19.085Z,2.70
2019-01-15T00:42:54.905Z,2.37
2019-01-15T00:43:31.158Z,3.85
2019-01-15T00:44:06.960Z,3.50
2019-01-15T00:44:42.537Z,2.80
2019-01-15T00:45:18.357Z,2.87
2019-01-15T00:45:54.001Z,3.27
2019-01-15T00:46:29.816Z,3.17
2019-01-15T00:47:05.377Z,2.80
2019-01-15T00:47:41.198Z,3.67
2019-01-15T00:48:16.939Z,2.87
2019-01-15T00:48:52.599Z,3.52
2019-01-15T00:49:28.287Z,3.70
2019-01-15T00:50:04.048Z,3.70
2019-01-15T00:50:40.018Z,3.10
2019-01-15T00:51:15.677Z,3.37
2019-01-15T00:51:51.467Z,3.83
2019-01-15T00:52:27.007Z,3.98
2019-01-15T00:53:02.746Z,3.42
2019-01-15T00:53:38.397Z,3.55
2019-01-15T00:54:14.088Z,4.12
2019-01-15T00:54:49.898Z,3.00
2019-01-15T00:55:25.422Z,4.08
2019-01-15T00:56:01.222Z,3.33
2019-01-15T00:56:36.985Z,3.58
2019-01-15T00:57:12.747Z,4.83
2019-01-15T00:57:48.343Z,3.40
2019-01-15T00:58:24.134Z,2.37
2019-01-15T00:58:59.834Z,2.80
2019-01-15T00:59:35.467Z,2.33
2019-01-15T01:00:19.469Z,2.67
2019-01-15T01:00:55.126Z,3.12
2019-01-15T01:01:30.919Z,3.05
2019-01-15T01:02:06.911Z,3.42
2019-01-15T01:02:42.542Z,3.65
2019-01-15T01:03:18.157Z,2.90
2019-01-15T01:03:53.911Z,3.02
2019-01-15T01:04:29.570Z,2.95
2019-01-15T01:05:05.850Z,3.30
2019-01-15T01:05:41.648Z,3.85
2019-01-15T01:06:17.401Z,3.30
2019-01-15T01:06:53.242Z,3.35
2019-01-15T01:07:28.870Z,3.20
2019-01-15T01:08:04.967Z,3.05
2019-01-15T01:08:40.541Z,3.47
2019-01-15T01:09:16.464Z,3.47
2019-01-15T01:09:52.081Z,3.50
2019-01-15T01:10:27.980Z,2.80
2019-01-15T01:11:03.814Z,3.30
2019-01-15T01:11:39.542Z,3.67
2019-01-15T01:12:22.043Z,2.60
2019-01-15T01:12:52.514Z,2.60
2019-01-15T01:13:28.153Z,3.47
2019-01-15T01:14:03.910Z,2.95
2019-01-15T01:14:39.636Z,2.90
2019-01-15T01:15:16.556Z,3.25
2019-01-15T01:15:52.388Z,3.12
2019-01-15T01:16:28.331Z,3.02
2019-01-15T01:17:04.099Z,2.70
2019-01-15T01:17:39.908Z,3.60
2019-01-15T01:18:15.505Z,3.30
2019-01-15T01:18:51.263Z,3.00
2019-01-15T01:19:26.800Z,3.12
2019-01-15T01:20:02.391Z,2.98
2019-01-15T01:20:38.232Z,2.90
2019-01-15T01:21:13.753Z,2.22
2019-01-15T01:21:49.371Z,3.30
2019-01-15T01:22:24.788Z,2.37
2019-01-15T01:23:00.292Z,2.98
2019-01-15T01:23:35.738Z,2.58
2019-01-15T01:24:11.308Z,2.00
2019-01-15T01:24:46.794Z,2.35
2019-01-15T01:25:22.199Z,2.85
2019-01-15T01:25:57.559Z,2.50
2019-01-15T01:26:33.282Z,3.08
2019-01-15T01:27:09.041Z,3.85
2019-01-15T01:27:44.498Z,3.30
2019-01-15T01:28:19.875Z,3.67
2019-01-15T01:28:55.369Z,3.40
2019-01-15T01:29:30.916Z,2.20
2019-01-15T01:30:08.867Z,2.87
2019-01-15T01:30:44.302Z,3.08
2019-01-15T01:31:19.720Z,3.08
2019-01-15T01:31:55.139Z,3.75
2019-01-15T01:32:30.518Z,1.80
2019-01-15T01:33:05.926Z,3.55
2019-01-15T01:33:41.204Z,3.05
2019-01-15T01:34:16.819Z,3.55
2019-01-15T01:34:52.317Z,3.90
2019-01-15T01:35:27.835Z,4.15
2019-01-15T01:36:03.521Z,3.65
2019-01-15T01:36:39.303Z,3.40
2019-01-15T01:37:14.754Z,2.80
2019-01-15T01:37:50.198Z,2.77
2019-01-15T01:38:25.596Z,3.35
2019-01-15T01:39:01.067Z,2.85
2019-01-15T01:39:36.697Z,3.55
2019-01-15T01:40:14.847Z,2.25
2019-01-15T01:40:50.297Z,2.95
2019-01-15T01:41:25.924Z,3.67
2019-01-15T01:42:01.405Z,4.17
2019-01-15T01:42:37.014Z,2.87
2019-01-15T01:43:12.612Z,2.95
2019-01-15T01:43:48.662Z,3.05
2019-01-15T01:44:24.183Z,2.75
2019-01-15T01:44:59.651Z,2.65
2019-01-15T01:45:35.077Z,3.12
2019-01-15T01:46:10.518Z,2.00
2019-01-15T01:46:46.005Z,1.92
2019-01-15T01:47:21.472Z,2.85
2019-01-15T01:47:57.003Z,2.60
2019-01-15T01:48:32.542Z,2.47
2019-01-15T01:49:07.939Z,3.30
2019-01-15T01:49:43.289Z,4.05
2019-01-15T01:50:18.726Z,2.98
2019-01-15T01:50:54.648Z,3.15
2019-01-15T01:51:30.219Z,2.92
2019-01-15T01:52:05.926Z,2.80
2019-01-15T01:52:44.634Z,3.17
2019-01-15T01:53:20.102Z,3.65
2019-01-15T01:53:55.593Z,3.05
2019-01-15T01:54:31.204Z,3.12
2019-01-15T01:55:07.987Z,3.10
2019-01-15T01:55:43.516Z,2.40
2019-01-15T01:56:19.171Z,3.08
2019-01-15T01:56:54.627Z,3.70
2019-01-15T01:57:30.062Z,2.52
2019-01-15T01:58:05.947Z,2.98
2019-01-15T01:58:41.902Z,2.75
2019-01-15T01:59:17.448Z,2.22
2019-01-15T01:59:53.064Z,3.62
2019-01-15T02:00:28.625Z,3.40
2019-01-15T02:01:04.144Z,2.92
2019-01-15T02:01:39.615Z,2.90
2019-01-15T02:02:14.931Z,2.70
2019-01-15T02:02:50.967Z,2.80
2019-01-15T02:03:26.486Z,2.58
2019-01-15T02:04:01.818Z,3.30
2019-01-15T02:04:37.267Z,4.17
2019-01-15T02:05:12.894Z,3.98
2019-01-15T02:05:48.501Z,2.50
2019-01-15T02:06:24.955Z,3.17
2019-01-15T02:07:00.615Z,2.50
2019-01-15T02:07:36.064Z,3.12
2019-01-15T02:08:11.662Z,2.25
2019-01-15T02:08:47.302Z,2.02
2019-01-15T02:09:23.270Z,3.00
2019-01-15T02:09:58.774Z,3.95
2019-01-15T02:10:34.276Z,3.37
2019-01-15T02:11:09.888Z,2.22
2019-01-15T02:11:45.389Z,2.37
2019-01-15T02:12:20.832Z,2.92
2019-01-15T02:12:56.225Z,2.45
2019-01-15T02:13:31.935Z,3.35
2019-01-15T02:14:07.708Z,3.20
2019-01-15T02:14:43.138Z,4.17
2019-01-15T02:15:21.194Z,3.08
2019-01-15T02:15:56.671Z,2.80
2019-01-15T02:16:32.176Z,3.30
2019-01-15T02:17:07.514Z,2.67
2019-01-15T02:17:42.957Z,2.42
2019-01-15T02:18:18.496Z,2.92
2019-01-15T02:18:54.238Z,3.08
2019-01-15T02:19:29.658Z,2.92
2019-01-15T02:20:06.649Z,2.47
2019-01-15T02:20:42.030Z,2.67
2019-01-15T02:21:17.646Z,2.92
2019-01-15T02:21:53.255Z,2.75
2019-01-15T02:22:28.662Z,3.50
2019-01-15T02:23:04.102Z,2.37
2019-01-15T02:23:39.414Z,2.95
2019-01-15T02:24:15.376Z,2.52
2019-01-15T02:24:50.799Z,3.17
2019-01-15T02:25:26.310Z,3.20
2019-01-15T02:26:01.861Z,2.98
2019-01-15T02:26:37.318Z,2.75
2019-01-15T02:27:13.581Z,2.20
2019-01-15T02:27:51.305Z,3.42
2019-01-15T02:28:26.874Z,2.55
2019-01-15T02:29:02.369Z,2.55
2019-01-15T02:29:38.005Z,3.02
2019-01-15T02:30:16.059Z,2.70
2019-01-15T02:30:51.641Z,2.72
2019-01-15T02:31:27.186Z,2.33
2019-01-15T02:32:02.642Z,2.55
2019-01-15T02:32:38.100Z,2.77
2019-01-15T02:33:13.591Z,3.22
2019-01-15T02:33:48.920Z,3.37
2019-01-15T02:34:24.417Z,2.60
2019-01-15T02:35:00.014Z,2.58
2019-01-15T02:35:35.501Z,3.30
2019-01-15T02:36:11.013Z,2.90
2019-01-15T02:36:46.385Z,2.47
2019-01-15T02:37:22.046Z,2.95
2019-01-15T02:37:57.410Z,2.60
2019-01-15T02:38:32.980Z,2.45
2019-01-15T02:39:09.352Z,2.70
2019-01-15T02:39:45.029Z,3.60
2019-01-15T02:40:20.482Z,3.77
2019-01-15T02:40:55.917Z,2.55
2019-01-15T02:41:31.575Z,2.58
2019-01-15T02:42:06.911Z,1.82
2019-01-15T02:42:46.654Z,2.65
2019-01-15T02:43:19.484Z,3.05
2019-01-15T02:43:54.994Z,2.90
2019-01-15T02:44:30.640Z,1.98
2019-01-15T02:45:07.240Z,3.10
2019-01-15T02:45:42.761Z,2.47
2019-01-15T02:46:18.562Z,2.25
2019-01-15T02:46:54.057Z,2.40
2019-01-15T02:47:29.670Z,2.62
2019-01-15T02:48:05.260Z,3.10
2019-01-15T02:48:40.711Z,3.15
2019-01-15T02:49:16.153Z,2.50
2019-01-15T02:49:51.691Z,3.10
2019-01-15T02:50:27.014Z,3.08
2019-01-15T02:51:02.545Z,2.60
2019-01-15T02:51:38.250Z,3.50
2019-01-15T02:52:13.602Z,2.50
2019-01-15T02:52:49.355Z,2.50
2019-01-15T02:53:24.931Z,2.80
2019-01-15T02:54:00.490Z,3.58
2019-01-15T02:54:36.040Z,3.33
2019-01-15T02:55:11.851Z,2.75
2019-01-15T02:55:47.317Z,3.90
2019-01-15T02:56:22.739Z,2.92
2019-01-15T02:56:58.141Z,2.22
2019-01-15T02:57:33.594Z,3.10
2019-01-15T02:58:09.135Z,3.20
2019-01-15T02:58:44.560Z,3.85
2019-01-15T02:59:19.884Z,2.90
2019-01-15T02:59:55.322Z,2.92
2019-01-15T03:00:30.869Z,2.77
2019-01-15T03:01:06.513Z,3.05
2019-01-15T03:01:41.964Z,2.60
2019-01-15T03:02:17.454Z,2.50
2019-01-15T03:02:52.949Z,2.20
2019-01-15T03:03:28.537Z,3.62
2019-01-15T03:04:04.133Z,2.80
2019-01-15T03:04:39.612Z,3.47
2019-01-15T03:05:15.819Z,3.62
2019-01-15T03:05:51.347Z,3.50
2019-01-15T03:06:27.006Z,3.58
2019-01-15T03:07:02.644Z,2.55
2019-01-15T03:07:38.163Z,2.98
2019-01-15T03:08:13.510Z,3.83
2019-01-15T03:08:48.937Z,2.50
2019-01-15T03:09:24.435Z,2.55
2019-01-15T03:10:00.197Z,3.05
2019-01-15T03:10:35.855Z,2.55
2019-01-15T03:11:11.458Z,2.77
2019-01-15T03:11:47.437Z,3.33
2019-01-15T03:12:23.052Z,3.52
2019-01-15T03:12:58.696Z,3.10
2019-01-15T03:13:34.034Z,3.02
2019-01-15T03:14:09.730Z,2.60
2019-01-15T03:14:45.275Z,3.35
2019-01-15T03:15:21.237Z,2.90
2019-01-15T03:15:56.741Z,2.60
2019-01-15T03:16:32.215Z,2.85
2019-01-15T03:17:07.904Z,1.87
2019-01-15T03:17:43.574Z,2.77
2019-01-15T03:18:19.102Z,2.08
2019-01-15T03:18:54.725Z,3.70
2019-01-15T03:19:30.320Z,2.90
2019-01-15T03:20:07.202Z,3.40
2019-01-15T03:20:42.692Z,3.58
2019-01-15T03:21:18.080Z,2.98
2019-01-15T03:21:53.537Z,3.12
2019-01-15T03:22:28.973Z,2.45
2019-01-15T03:23:04.595Z,2.40
2019-01-15T03:23:40.250Z,2.35
2019-01-15T03:24:15.684Z,2.00
2019-01-15T03:24:51.260Z,3.50
2019-01-15T03:25:26.709Z,3.00
2019-01-15T03:26:02.274Z,2.27
2019-01-15T03:26:37.783Z,2.90
2019-01-15T03:27:13.231Z,3.08
2019-01-15T03:27:48.663Z,3.15
2019-01-15T03:28:23.984Z,3.62
2019-01-15T03:28:59.814Z,2.85
2019-01-15T03:29:35.390Z,3.08
2019-01-15T03:30:14.033Z,2.90
2019-01-15T03:30:49.441Z,3.08
2019-01-15T03:31:24.802Z,2.60
2019-01-15T03:32:00.267Z,2.90
2019-01-15T03:32:35.677Z,3.02
2019-01-15T03:33:11.220Z,3.00
2019-01-15T03:33:46.741Z,3.15
2019-01-15T03:34:22.268Z,2.70
2019-01-15T03:34:58.199Z,2.85
2019-01-15T03:35:33.734Z,3.67
2019-01-15T03:36:09.365Z,2.52
2019-01-15T03:36:44.915Z,2.90
2019-01-15T03:37:20.334Z,2.15
2019-01-15T03:37:55.905Z,2.87
2019-01-15T03:38:31.384Z,2.80
2019-01-15T03:39:09.646Z,3.45
2019-01-15T03:39:45.154Z,3.20
2019-01-15T03:40:22.698Z,3.40
2019-01-15T03:40:58.055Z,2.50
2019-01-15T03:41:33.589Z,3.17
2019-01-15T03:42:09.115Z,3.15
2019-01-15T03:42:44.426Z,2.80
2019-01-15T03:43:19.762Z,3.20
2019-01-15T03:43:55.113Z,2.70
2019-01-15T03:44:30.430Z,3.70
2019-01-15T03:45:06.733Z,3.17
2019-01-15T03:45:42.122Z,3.22
2019-01-15T03:46:17.550Z,2.77
2019-01-15T03:46:53.170Z,2.75
2019-01-15T03:47:28.603Z,2.70
2019-01-15T03:48:04.253Z,4.78
2019-01-15T03:48:39.685Z,3.22
2019-01-15T03:49:15.235Z,3.15
2019-01-15T03:49:50.870Z,2.83
2019-01-15T03:50:26.442Z,3.10
2019-01-15T03:51:02.004Z,2.47
2019-01-15T03:51:37.540Z,2.33
2019-01-15T03:52:13.064Z,3.15
2019-01-15T03:52:48.674Z,3.33
2019-01-15T03:53:23.984Z,3.37
2019-01-15T03:53:59.565Z,3.33
2019-01-15T03:54:34.908Z,3.92
2019-01-15T03:55:10.800Z,3.47
2019-01-15T03:55:46.254Z,3.85
2019-01-15T03:56:21.582Z,5.22
2019-01-15T03:56:57.065Z,4.70
2019-01-15T03:57:32.459Z,4.58
2019-01-15T03:58:08.009Z,3.70
2019-01-15T03:58:43.544Z,3.85
2019-01-15T03:59:18.934Z,3.98
2019-01-15T03:59:54.379Z,3.12
2019-01-15T04:00:30.209Z,3.60
2019-01-15T04:01:05.713Z,3.50
2019-01-15T04:01:41.340Z,2.87
2019-01-15T04:02:16.823Z,3.70
2019-01-15T04:02:52.374Z,2.98
2019-01-15T04:03:28.136Z,3.17
2019-01-15T04:04:03.637Z,3.47
2019-01-15T04:04:39.274Z,2.72
2019-01-15T04:05:16.317Z,3.90
2019-01-15T04:05:51.769Z,3.90
2019-01-15T04:06:27.094Z,2.20
2019-01-15T04:07:02.631Z,3.15
2019-01-15T04:07:38.844Z,3.80
2019-01-15T04:08:14.469Z,3.55
2019-01-15T04:08:49.970Z,4.15
2019-01-15T04:09:25.647Z,3.45
2019-01-15T04:10:01.198Z,4.17
2019-01-15T04:10:36.628Z,3.80
2019-01-15T04:11:11.947Z,3.50
2019-01-15T04:11:47.433Z,3.98
2019-01-15T04:12:23.201Z,4.62
2019-01-15T04:12:58.772Z,3.58
2019-01-15T04:13:34.381Z,3.47
2019-01-15T04:14:10.133Z,3.30
2019-01-15T04:14:45.690Z,3.17
2019-01-15T04:15:21.092Z,2.45
2019-01-15T04:15:56.640Z,3.60
2019-01-15T04:16:32.182Z,3.70
2019-01-15T04:17:07.486Z,3.33
2019-01-15T04:17:43.242Z,3.42
2019-01-15T04:18:18.778Z,4.37
2019-01-15T04:18:54.208Z,3.92
2019-01-15T04:19:29.602Z,4.58
2019-01-15T04:20:06.490Z,3.98
2019-01-15T04:20:41.950Z,3.58
2019-01-15T04:21:17.281Z,3.87
2019-01-15T04:21:52.794Z,2.83
2019-01-15T04:22:28.239Z,4.25
2019-01-15T04:23:03.666Z,3.65
2019-01-15T04:23:39.088Z,3.50
2019-01-15T04:24:14.487Z,4.15
2019-01-15T04:24:49.955Z,3.87
2019-01-15T04:25:25.513Z,3.72
2019-01-15T04:26:01.311Z,3.52
2019-01-15T04:26:36.888Z,3.12
2019-01-15T04:27:12.562Z,3.75
2019-01-15T04:27:48.118Z,2.92
2019-01-15T04:28:23.442Z,2.92
2019-01-15T04:28:58.995Z,4.05
2019-01-15T04:29:34.630Z,3.58
2019-01-15T04:30:13.335Z,3.47
2019-01-15T04:30:48.960Z,4.00
2019-01-15T04:31:24.501Z,4.03
2019-01-15T04:32:00.027Z,3.98
2019-01-15T04:32:35.447Z,3.80
2019-01-15T04:33:10.898Z,2.58
2019-01-15T04:33:46.284Z,3.50
2019-01-15T04:34:21.858Z,3.70
2019-01-15T04:34:57.381Z,3.72
2019-01-15T04:35:32.694Z,3.60
2019-01-15T04:36:08.133Z,3.25
2019-01-15T04:36:43.687Z,3.58
2019-01-15T04:37:19.102Z,3.37
2019-01-15T04:37:54.547Z,3.12
2019-01-15T04:38:29.987Z,4.00
2019-01-15T04:39:07.820Z,3.55
2019-01-15T04:39:43.212Z,4.10
2019-01-15T04:40:22.865Z,4.17
2019-01-15T04:40:58.509Z,4.20
2019-01-15T04:41:34.251Z,3.55
2019-01-15T04:42:09.635Z,3.47
2019-01-15T04:42:45.163Z,3.65
2019-01-15T04:43:20.698Z,2.70
2019-01-15T04:43:56.213Z,3.20
2019-01-15T04:44:31.642Z,3.67
2019-01-15T04:45:08.323Z,4.42
2019-01-15T04:45:43.722Z,5.58
2019-01-15T04:46:19.267Z,3.77
2019-01-15T04:46:54.807Z,5.40
2019-01-15T04:47:30.328Z,5.22
2019-01-15T04:48:05.657Z,3.62
2019-01-15T04:48:41.270Z,3.95
2019-01-15T04:49:16.847Z,4.20
2019-01-15T04:49:52.274Z,3.25
2019-01-15T04:50:27.864Z,3.05
2019-01-15T04:51:03.408Z,3.62
2019-01-15T04:51:38.873Z,3.05
2019-01-15T04:52:14.451Z,2.98
2019-01-15T04:53:05.258Z,3.58
2019-01-15T04:53:40.842Z,3.27
2019-01-15T04:54:16.228Z,3.40
2019-01-15T04:54:51.941Z,3.27
2019-01-15T04:55:27.433Z,2.37
2019-01-15T04:56:02.993Z,2.92
2019-01-15T04:56:38.869Z,4.03
2019-01-15T04:57:14.389Z,3.52
2019-01-15T04:57:49.978Z,2.35
2019-01-15T04:58:25.524Z,3.50
2019-01-15T04:59:01.440Z,2.92
2019-01-15T04:59:37.381Z,3.15
2019-01-15T05:00:15.858Z,2.58
2019-01-15T05:00:51.519Z,3.87
2019-01-15T05:01:26.899Z,4.10
2019-01-15T05:02:02.617Z,3.80
2019-01-15T05:02:38.793Z,3.62
2019-01-15T05:03:14.255Z,2.98
2019-01-15T05:03:49.828Z,3.50
2019-01-15T05:04:25.330Z,4.00
2019-01-15T05:05:01.244Z,4.20
2019-01-15T05:05:36.695Z,3.30
2019-01-15T05:06:12.195Z,3.05
2019-01-15T05:06:47.889Z,3.67
2019-01-15T05:07:23.299Z,4.35
2019-01-15T05:07:58.708Z,2.90
2019-01-15T05:08:34.326Z,4.12
2019-01-15T05:09:10.261Z,4.33
2019-01-15T05:09:45.741Z,3.45
2019-01-15T05:10:21.240Z,3.30
2019-01-15T05:10:56.731Z,3.62
2019-01-15T05:11:32.346Z,4.42
2019-01-15T05:12:07.809Z,3.35
2019-01-15T05:12:43.280Z,3.47
2019-01-15T05:13:18.719Z,3.67
2019-01-15T05:13:54.659Z,4.05
2019-01-15T05:14:30.199Z,3.75
2019-01-15T05:15:07.268Z,4.67
2019-01-15T05:15:43.093Z,3.70
2019-01-15T05:16:18.691Z,3.98
2019-01-15T05:16:54.238Z,3.27
2019-01-15T05:17:29.773Z,4.37
2019-01-15T05:18:05.459Z,4.00
2019-01-15T05:18:41.011Z,4.30
2019-01-15T05:19:16.602Z,4.58
2019-01-15T05:19:52.106Z,4.05
2019-01-15T05:20:27.917Z,4.20
2019-01-15T05:21:03.311Z,4.15
2019-01-15T05:21:38.624Z,3.95
2019-01-15T05:22:14.140Z,3.85
2019-01-15T05:22:49.661Z,3.37
2019-01-15T05:23:25.129Z,2.83
2019-01-15T05:24:00.562Z,4.22
2019-01-15T05:24:35.988Z,3.83
2019-01-15T05:25:14.066Z,3.80
2019-01-15T05:25:49.506Z,3.85
2019-01-15T05:26:25.005Z,3.95
2019-01-15T05:27:00.567Z,4.33
2019-01-15T05:27:35.894Z,3.17
2019-01-15T05:28:11.434Z,4.28
2019-01-15T05:28:46.874Z,4.62
2019-01-15T05:29:22.317Z,5.22
2019-01-15T05:29:57.734Z,4.78
2019-01-15T05:30:33.175Z,5.17
2019-01-15T05:31:08.695Z,5.60
2019-01-15T05:31:44.237Z,5.47
2019-01-15T05:32:19.698Z,6.37
2019-01-15T05:32:55.270Z,7.10
2019-01-15T05:33:30.796Z,6.35
2019-01-15T05:34:06.264Z,6.65
2019-01-15T05:34:41.787Z,6.92
2019-01-15T05:35:17.308Z,4.92
2019-01-15T05:35:52.753Z,6.08
2019-01-15T05:36:28.310Z,4.28
2019-01-15T05:37:03.626Z,5.92
2019-01-15T05:37:39.031Z,6.10
2019-01-15T05:38:14.604Z,3.30
2019-01-15T05:38:50.003Z,4.85
2019-01-15T05:39:25.482Z,4.25
2019-01-15T05:40:00.952Z,4.50
2019-01-15T05:40:36.502Z,4.30
2019-01-15T05:41:12.074Z,4.90
2019-01-15T05:41:47.501Z,5.12
2019-01-15T05:42:22.907Z,4.62
2019-01-15T05:42:58.619Z,4.00
2019-01-15T05:43:35.870Z,4.35
2019-01-15T05:44:11.331Z,3.67
2019-01-15T05:44:46.718Z,4.22
2019-01-15T05:45:34.378Z,4.47
2019-01-15T05:46:09.861Z,5.30
2019-01-15T05:46:45.485Z,4.30
2019-01-15T05:47:22.926Z,4.37
2019-01-15T05:48:01.370Z,4.42
2019-01-15T05:48:37.839Z,4.35
2019-01-15T05:49:13.229Z,3.42
2019-01-15T05:49:48.856Z,4.65
2019-01-15T05:50:32.239Z,4.10
2019-01-15T05:51:33.564Z,4.97
2019-01-15T05:52:08.966Z,4.20
2019-01-15T05:52:44.466Z,4.03
2019-01-15T05:53:20.018Z,4.70
2019-01-15T05:53:55.449Z,4.67
2019-01-15T05:54:30.747Z,4.22
2019-01-15T05:55:06.634Z,5.00
2019-01-15T05:55:41.928Z,5.05
2019-01-15T05:56:17.410Z,4.08
2019-01-15T05:56:53.018Z,5.00
2019-01-15T05:57:28.539Z,3.20
2019-01-15T05:58:03.980Z,4.28
2019-01-15T05:58:39.540Z,4.42
2019-01-15T05:59:14.959Z,5.22
2019-01-15T05:59:50.668Z,3.08
2019-01-15T06:00:26.087Z,5.20
2019-01-15T06:01:01.763Z,4.50
2019-01-15T06:01:37.187Z,4.50
2019-01-15T06:02:12.730Z,2.95
2019-01-15T06:02:48.160Z,5.47
2019-01-15T06:03:23.678Z,4.35
2019-01-15T06:03:58.983Z,4.40
2019-01-15T06:04:34.549Z,5.30
2019-01-15T06:05:10.654Z,4.45
2019-01-15T06:05:46.178Z,5.45
2019-01-15T06:06:21.680Z,4.72
2019-01-15T06:06:57.548Z,4.72
2019-01-15T06:07:33.744Z,4.42
2019-01-15T06:08:09.469Z,4.05
2019-01-15T06:08:44.999Z,4.30
2019-01-15T06:09:20.397Z,4.05
2019-01-15T06:09:56.093Z,5.78
2019-01-15T06:10:31.691Z,4.65
2019-01-15T06:11:07.212Z,6.17
2019-01-15T06:11:42.853Z,5.08
2019-01-15T06:12:18.281Z,4.70
2019-01-15T06:12:53.602Z,4.35
2019-01-15T06:13:29.188Z,5.50
2019-01-15T06:14:04.882Z,6.35
2019-01-15T06:14:40.430Z,5.53
2019-01-15T06:15:16.045Z,5.72
2019-01-15T06:15:51.494Z,6.33
2019-01-15T06:16:27.545Z,5.25
2019-01-15T06:17:02.948Z,5.55
2019-01-15T06:17:38.311Z,5.33
2019-01-15T06:18:13.809Z,5.87
2019-01-15T06:18:49.269Z,5.50
2019-01-15T06:19:24.682Z,5.83
2019-01-15T06:20:00.641Z,6.78
2019-01-15T06:20:36.043Z,6.65
2019-01-15T06:21:11.779Z,6.58
2019-01-15T06:21:47.327Z,6.72
2019-01-15T06:22:22.871Z,5.08
2019-01-15T06:22:58.529Z,3.95
2019-01-15T06:23:33.920Z,4.72
2019-01-15T06:24:09.150Z,6.05
2019-01-15T06:24:44.330Z,5.67
2019-01-15T06:25:19.753Z,6.60
2019-01-15T06:25:55.012Z,4.60
2019-01-15T06:26:30.161Z,4.10
2019-01-15T06:27:05.493Z,3.75
2019-01-15T06:27:41.253Z,4.90
2019-01-15T06:28:16.514Z,5.37
2019-01-15T06:28:51.700Z,6.95
2019-01-15T06:29:27.116Z,6.20
2019-01-15T06:30:02.400Z,4.67
2019-01-15T06:30:37.691Z,5.22
2019-01-15T06:31:13.874Z,5.58
2019-01-15T06:31:49.170Z,5.65
2019-01-15T06:32:24.420Z,5.25
2019-01-15T06:32:59.683Z,5.85
2019-01-15T06:33:34.903Z,6.20
2019-01-15T06:34:10.062Z,6.30
2019-01-15T06:34:45.252Z,6.45
2019-01-15T06:35:20.550Z,6.35
2019-01-15T06:35:55.740Z,6.17
2019-01-15T06:36:31.351Z,6.30
2019-01-15T06:37:06.678Z,6.37
2019-01-15T06:37:41.756Z,7.65
2019-01-15T06:38:16.941Z,7.28
2019-01-15T06:38:52.492Z,7.42
2019-01-15T06:39:27.991Z,7.72
2019-01-15T06:40:03.622Z,8.58
2019-01-15T06:40:39.073Z,6.97
2019-01-15T06:41:14.505Z,5.78
2019-01-15T06:41:50.237Z,8.20
2019-01-15T06:42:25.739Z,7.58
2019-01-15T06:43:01.418Z,7.87
2019-01-15T06:43:36.845Z,7.80
2019-01-15T06:44:12.439Z,8.00
2019-01-15T06:44:48.069Z,7.25
2019-01-15T06:45:24.535Z,8.33
2019-01-15T06:45:59.995Z,7.75
2019-01-15T06:46:35.375Z,8.30
2019-01-15T06:47:10.835Z,6.62
2019-01-15T06:47:46.364Z,8.15
2019-01-15T06:48:22.212Z,9.35
2019-01-15T06:48:57.775Z,10.23
2019-01-15T06:49:33.494Z,10.40
2019-01-15T06:50:09.135Z,9.43
2019-01-15T06:50:44.429Z,9.23
2019-01-15T06:51:19.892Z,9.75
2019-01-15T06:51:55.515Z,9.58
2019-01-15T06:52:30.971Z,9.13
2019-01-15T06:53:06.590Z,10.43
2019-01-15T06:53:42.158Z,9.05
2019-01-15T06:54:17.634Z,7.90
2019-01-15T06:54:53.619Z,9.20
2019-01-15T06:55:29.232Z,10.23
2019-01-15T06:56:04.954Z,9.03
2019-01-15T06:56:40.495Z,9.80
2019-01-15T06:57:15.940Z,7.85
2019-01-15T06:57:51.654Z,10.68
2019-01-15T06:58:27.084Z,9.23
2019-01-15T06:59:02.704Z,10.85
2019-01-15T06:59:38.176Z,10.58
2019-01-15T07:00:19.242Z,11.57
2019-01-15T07:00:54.643Z,9.55
2019-01-15T07:01:30.107Z,11.10
2019-01-15T07:02:05.760Z,10.90
2019-01-15T07:02:41.556Z,9.43
2019-01-15T07:03:17.007Z,11.00
2019-01-15T07:03:53.009Z,11.70
2019-01-15T07:04:28.595Z,12.05
2019-01-15T07:05:04.114Z,11.63
2019-01-15T07:05:39.547Z,12.80
2019-01-15T07:06:15.007Z,12.18
2019-01-15T07:06:50.612Z,12.73
2019-01-15T07:07:26.028Z,15.32
2019-01-15T07:08:01.850Z,9.98
2019-01-15T07:08:37.307Z,11.75
2019-01-15T07:09:13.138Z,13.35
2019-01-15T07:09:48.594Z,12.10
2019-01-15T07:10:30.339Z,12.65
2019-01-15T07:11:06.198Z,12.33
2019-01-15T07:11:41.626Z,12.63
2019-01-15T07:12:17.296Z,10.43
2019-01-15T07:12:52.925Z,11.75
2019-01-15T07:13:28.437Z,13.83
2019-01-15T07:14:03.913Z,14.78
2019-01-15T07:14:39.746Z,12.93
2019-01-15T07:15:15.624Z,13.05
2019-01-15T07:15:52.853Z,8.90
2019-01-15T07:16:28.734Z,12.33
2019-01-15T07:17:04.207Z,12.05
2019-01-15T07:17:39.607Z,12.13
2019-01-15T07:18:15.105Z,10.95
2019-01-15T07:18:50.672Z,12.15
2019-01-15T07:19:26.259Z,11.93
2019-01-15T07:20:02.107Z,11.97
2019-01-15T07:20:37.688Z,12.50
2019-01-15T07:21:13.228Z,12.78
2019-01-15T07:21:48.896Z,12.55
2019-01-15T07:22:24.496Z,13.13
2019-01-15T07:23:00.046Z,13.35
2019-01-15T07:23:35.481Z,11.97
2019-01-15T07:24:11.122Z,14.93
2019-01-15T07:24:46.901Z,12.40
2019-01-15T07:25:23.525Z,12.37
2019-01-15T07:25:59.146Z,12.30
2019-01-15T07:26:35.090Z,11.90
2019-01-15T07:27:10.640Z,8.05
2019-01-15T07:27:46.258Z,11.25
2019-01-15T07:28:21.982Z,11.65
2019-01-15T07:28:57.425Z,11.70
2019-01-15T07:29:32.846Z,12.55
2019-01-15T07:30:12.415Z,11.40
2019-01-15T07:30:50.640Z,10.75
2019-01-15T07:31:26.182Z,11.78
2019-01-15T07:32:01.833Z,11.93
2019-01-15T07:32:37.164Z,10.93
2019-01-15T07:33:12.567Z,6.78
2019-01-15T07:33:48.009Z,11.28
2019-01-15T07:34:23.429Z,9.40
2019-01-15T07:34:59.303Z,10.90
2019-01-15T07:35:34.982Z,12.55
2019-01-15T07:36:10.757Z,10.60
2019-01-15T07:36:46.118Z,12.13
2019-01-15T07:37:21.840Z,12.30
2019-01-15T07:37:57.433Z,11.18
2019-01-15T07:38:32.780Z,9.83
2019-01-15T07:39:10.052Z,11.10
2019-01-15T07:39:45.465Z,6.67
2019-01-15T07:40:21.442Z,11.53
2019-01-15T07:40:57.114Z,11.75
2019-01-15T07:41:32.657Z,12.98
2019-01-15T07:42:08.140Z,11.40
2019-01-15T07:42:43.662Z,13.08
2019-01-15T07:43:19.247Z,12.05
2019-01-15T07:43:54.801Z,11.30
2019-01-15T07:44:30.466Z,11.73
2019-01-15T07:45:06.991Z,10.58
2019-01-15T07:45:42.577Z,9.80
2019-01-15T07:46:17.994Z,8.20
2019-01-15T07:46:53.487Z,10.20
2019-01-15T07:47:28.941Z,8.33
2019-01-15T07:48:04.772Z,9.83
2019-01-15T07:48:40.651Z,9.95
2019-01-15T07:49:16.297Z,11.22
2019-01-15T07:49:51.950Z,10.25
2019-01-15T07:50:27.670Z,8.90
2019-01-15T07:51:03.360Z,9.50
2019-01-15T07:51:38.959Z,9.10
2019-01-15T07:52:14.574Z,8.53
2019-01-15T07:52:50.588Z,8.78
2019-01-15T07:53:26.031Z,10.35
2019-01-15T07:54:01.464Z,10.03